Back to Top

Language: 

My Weather Underground Personal Weather Station Historical Data with Graphs...

Delerius Weather Station Historical Data
Daily Summary for June 6, 2017 Units:  English    Metric   Both
« Previous Day
Next Day »
Daily Weekly Monthly Yearly Custom
  High: Low: Average:
Temperature: 54.7 °F 51.3 °F 52.8 °F
Dew Point: 53.8 °F 46.3 °F 49.1 °F
Humidity: 97 % 76 % 88 %
Wind Speed: 44.0 mph 4.0 mph 17.2 mph
Wind Gust: 44.0 mph - -
Wind:- - West
Pressure: 29.53 in 29.09 in -
Precipitation: 0.00 in    
Historical Graphs
 
 
Tabular Data for June 6, 2017
Time Temperature Dew Point Pressure Wind Wind Speed Wind Gust Humidity Rainfall Rate (Hourly) solar Conditions
00:00 54.1 °F 53.3 °F 29.11 in SE 7.0 mph 11.0 mph 97 % 0.01 in 0 W/m2
00:05 54.1 °F 53.3 °F 29.10 in SE 6.0 mph 10.0 mph 97 % 0.01 in 5 W/m2
00:11 54.1 °F 53.3 °F 29.10 in SE 6.0 mph 10.0 mph 97 % 0.01 in 5 W/m2
00:16 54.1 °F 53.3 °F 29.10 in SE 6.0 mph 10.0 mph 97 % 0.01 in 5 W/m2
00:20 54.1 °F 53.3 °F 29.10 in SSE 5.0 mph 8.0 mph 97 % 0.01 in 9 W/m2
00:26 54.1 °F 53.3 °F 29.09 in SSE 6.0 mph 11.0 mph 97 % 0.01 in 14 W/m2
00:31 54.3 °F 53.5 °F 29.09 in SSE 5.0 mph 11.0 mph 97 % 0.01 in 28 W/m2
00:36 54.3 °F 53.5 °F 29.09 in SSE 4.0 mph 8.0 mph 97 % 0.01 in 23 W/m2
00:41 54.3 °F 53.5 °F 29.09 in SE 5.0 mph 10.0 mph 97 % 0.01 in 21 W/m2
00:46 54.3 °F 53.5 °F 29.09 in SE 5.0 mph 10.0 mph 97 % 0.01 in 23 W/m2
00:51 54.5 °F 53.7 °F 29.09 in SE 5.0 mph 9.0 mph 97 % 0.01 in 23 W/m2
00:56 54.5 °F 53.7 °F 29.09 in SE 5.0 mph 8.0 mph 97 % 0.00 in 21 W/m2
01:01 54.5 °F 53.7 °F 29.09 in SE 5.0 mph 8.0 mph 97 % 0.00 in 25 W/m2
01:06 54.7 °F 53.8 °F 29.09 in SSE 4.0 mph 8.0 mph 97 % 0.00 in 21 W/m2
01:11 54.7 °F 53.8 °F 29.09 in SE 5.0 mph 8.0 mph 97 % 0.01 in 21 W/m2
01:16 54.7 °F 53.8 °F 29.09 in SSE 5.0 mph 8.0 mph 97 % 0.01 in 23 W/m2
01:21 54.7 °F 53.8 °F 29.09 in SSE 6.0 mph 9.0 mph 97 % 0.01 in 23 W/m2
01:26 54.7 °F 53.8 °F 29.09 in SE 6.0 mph 10.0 mph 97 % 0.02 in 18 W/m2
01:31 54.7 °F 53.8 °F 29.09 in SE 6.0 mph 12.0 mph 97 % 0.02 in 11 W/m2
01:36 54.7 °F 53.8 °F 29.09 in South 8.0 mph 16.0 mph 97 % 0.03 in 25 W/m2
01:41 54.1 °F 53.3 °F 29.10 in WSW 10.0 mph 20.0 mph 97 % 0.03 in 35 W/m2
01:46 53.8 °F 52.9 °F 29.10 in West 10.0 mph 20.0 mph 97 % 0.03 in 40 W/m2
01:51 53.6 °F 52.5 °F 29.10 in West 9.0 mph 19.0 mph 96 % 0.03 in 42 W/m2
01:56 53.2 °F 52.1 °F 29.10 in West 10.0 mph 23.0 mph 96 % 0.03 in 54 W/m2
02:01 52.9 °F 51.8 °F 29.10 in WNW 12.0 mph 23.0 mph 96 % 0.03 in 72 W/m2
02:06 52.9 °F 51.8 °F 29.10 in WNW 13.0 mph 23.0 mph 96 % 0.03 in 84 W/m2
02:11 52.5 °F 51.4 °F 29.10 in WNW 12.0 mph 23.0 mph 96 % 0.02 in 79 W/m2
02:16 52.5 °F 51.4 °F 29.11 in WNW 12.0 mph 22.0 mph 96 % 0.02 in 76 W/m2
02:21 52.3 °F 51.2 °F 29.11 in WNW 12.0 mph 21.0 mph 96 % 0.02 in 40 W/m2
02:26 52.2 °F 50.8 °F 29.11 in WNW 11.0 mph 19.0 mph 95 % 0.02 in 56 W/m2
02:31 51.6 °F 50.2 °F 29.11 in WNW 13.0 mph 22.0 mph 95 % 0.01 in 74 W/m2
02:36 51.6 °F 50.2 °F 29.11 in WNW 13.0 mph 23.0 mph 95 % 0.00 in 84 W/m2
02:41 51.4 °F 49.8 °F 29.11 in WNW 13.0 mph 23.0 mph 94 % 0.00 in 95 W/m2
02:46 51.4 °F 49.8 °F 29.11 in WNW 12.0 mph 21.0 mph 94 % 0.01 in 98 W/m2
02:51 51.4 °F 49.8 °F 29.11 in WNW 12.0 mph 25.0 mph 94 % 0.01 in 104 W/m2
02:56 51.4 °F 49.8 °F 29.11 in WNW 13.0 mph 25.0 mph 94 % 0.01 in 105 W/m2
03:01 51.4 °F 49.8 °F 29.11 in WNW 12.0 mph 21.0 mph 94 % 0.01 in 98 W/m2
03:06 51.4 °F 49.5 °F 29.12 in WNW 12.0 mph 23.0 mph 93 % 0.01 in 76 W/m2
03:11 51.3 °F 49.3 °F 29.12 in WNW 12.0 mph 29.0 mph 93 % 0.01 in 84 W/m2
03:14 51.3 °F 49.3 °F 29.12 in WNW 13.0 mph 29.0 mph 93 % 0.01 in 74 W/m2
03:19 51.3 °F 49.3 °F 29.12 in WNW 12.0 mph 22.0 mph 93 % 0.01 in 67 W/m2
03:24 51.4 °F 49.5 °F 29.12 in WNW 12.0 mph 21.0 mph 93 % 0.01 in 93 W/m2
03:29 51.4 °F 49.8 °F 29.12 in WNW 14.0 mph 25.0 mph 94 % 0.02 in 111 W/m2
03:34 51.4 °F 49.8 °F 29.12 in WNW 13.0 mph 25.0 mph 94 % 0.02 in 134 W/m2
03:39 51.6 °F 49.9 °F 29.12 in WNW 12.0 mph 22.0 mph 94 % 0.02 in 146 W/m2
03:44 51.6 °F 49.9 °F 29.12 in WNW 14.0 mph 22.0 mph 94 % 0.01 in 162 W/m2
03:49 52.0 °F 50.3 °F 29.12 in WNW 14.0 mph 23.0 mph 94 % 0.01 in 181 W/m2
03:54 52.0 °F 50.3 °F 29.12 in WNW 13.0 mph 23.0 mph 94 % 0.01 in 169 W/m2
03:59 52.0 °F 50.3 °F 29.12 in WNW 15.0 mph 26.0 mph 94 % 0.02 in 156 W/m2
04:04 52.0 °F 50.0 °F 29.12 in WNW 17.0 mph 30.0 mph 93 % 0.02 in 167 W/m2
04:09 52.0 °F 50.0 °F 29.12 in WNW 17.0 mph 30.0 mph 93 % 0.02 in 185 W/m2
04:14 52.0 °F 50.3 °F 29.12 in WNW 17.0 mph 29.0 mph 94 % 0.02 in 202 W/m2
04:19 52.2 °F 50.5 °F 29.12 in WNW 15.0 mph 27.0 mph 94 % 0.02 in 204 W/m2
04:24 52.2 °F 50.5 °F 29.12 in WNW 17.0 mph 28.0 mph 94 % 0.02 in 216 W/m2
04:29 52.3 °F 50.7 °F 29.12 in WNW 17.0 mph 28.0 mph 94 % 0.02 in 223 W/m2
04:35 52.3 °F 50.7 °F 29.12 in WNW 16.0 mph 28.0 mph 94 % 0.02 in 241 W/m2
04:39 52.3 °F 50.7 °F 29.12 in WNW 17.0 mph 28.0 mph 94 % 0.02 in 223 W/m2
04:45 52.3 °F 50.7 °F 29.12 in WNW 17.0 mph 30.0 mph 94 % 0.02 in 220 W/m2
04:50 52.3 °F 50.7 °F 29.12 in WNW 17.0 mph 30.0 mph 94 % 0.02 in 211 W/m2
04:55 52.3 °F 50.4 °F 29.13 in WNW 17.0 mph 31.0 mph 93 % 0.02 in 181 W/m2
05:00 52.3 °F 50.4 °F 29.13 in WNW 17.0 mph 31.0 mph 93 % 0.02 in 162 W/m2
05:05 52.3 °F 50.4 °F 29.13 in WNW 16.0 mph 25.0 mph 93 % 0.02 in 132 W/m2
05:10 52.2 °F 50.2 °F 29.13 in WNW 16.0 mph 34.0 mph 93 % 0.02 in 167 W/m2
05:15 52.2 °F 50.2 °F 29.13 in WNW 19.0 mph 34.0 mph 93 % 0.02 in 178 W/m2
05:20 52.0 °F 49.7 °F 29.14 in WNW 20.0 mph 34.0 mph 92 % 0.01 in 156 W/m2
05:25 52.0 °F 49.7 °F 29.14 in WNW 18.0 mph 34.0 mph 92 % 0.01 in 183 W/m2
05:30 52.0 °F 49.7 °F 29.14 in WNW 17.0 mph 28.0 mph 92 % 0.01 in 204 W/m2
05:35 52.2 °F 49.9 °F 29.14 in WNW 17.0 mph 29.0 mph 92 % 0.00 in 244 W/m2
05:40 52.3 °F 50.1 °F 29.14 in WNW 17.0 mph 31.0 mph 92 % 0.00 in 257 W/m2
05:45 52.3 °F 50.1 °F 29.14 in WNW 17.0 mph 31.0 mph 92 % 0.00 in 244 W/m2
05:50 52.5 °F 50.0 °F 29.14 in WNW 16.0 mph 31.0 mph 91 % 0.00 in 227 W/m2
05:55 52.5 °F 50.0 °F 29.15 in WNW 16.0 mph 27.0 mph 91 % 0.01 in 216 W/m2
06:00 52.5 °F 50.0 °F 29.15 in WNW 18.0 mph 30.0 mph 91 % 0.01 in 204 W/m2
06:05 52.5 °F 50.0 °F 29.15 in WNW 19.0 mph 30.0 mph 91 % 0.01 in 244 W/m2
06:06 52.5 °F 50.0 °F 29.15 in WNW 19.0 mph 30.0 mph 91 % 0.01 in 267 W/m2
06:11 52.7 °F 50.4 °F 29.15 in WNW 17.0 mph 27.0 mph 92 % 0.01 in 315 W/m2
06:16 52.9 °F 50.6 °F 29.16 in WNW 15.0 mph 29.0 mph 92 % 0.01 in 318 W/m2
06:21 53.1 °F 50.8 °F 29.16 in WNW 14.0 mph 29.0 mph 92 % 0.01 in 287 W/m2
06:26 53.1 °F 51.1 °F 29.15 in WNW 15.0 mph 29.0 mph 93 % 0.01 in 216 W/m2
06:31 52.9 °F 50.6 °F 29.16 in WNW 18.0 mph 32.0 mph 92 % 0.01 in 165 W/m2
06:36 52.9 °F 50.6 °F 29.16 in WNW 18.0 mph 32.0 mph 92 % 0.01 in 169 W/m2
06:41 52.7 °F 50.4 °F 29.16 in WNW 16.0 mph 28.0 mph 92 % 0.01 in 216 W/m2
06:46 52.7 °F 50.4 °F 29.16 in WNW 16.0 mph 26.0 mph 92 % 0.01 in 160 W/m2
06:51 52.7 °F 50.4 °F 29.17 in WNW 18.0 mph 40.0 mph 92 % 0.02 in 197 W/m2
06:56 52.7 °F 50.4 °F 29.17 in WNW 18.0 mph 40.0 mph 92 % 0.01 in 229 W/m2
07:01 52.7 °F 50.4 °F 29.17 in WNW 16.0 mph 29.0 mph 92 % 0.01 in 236 W/m2
07:06 52.7 °F 50.4 °F 29.17 in WNW 18.0 mph 32.0 mph 92 % 0.01 in 232 W/m2
07:11 52.7 °F 50.4 °F 29.17 in WNW 20.0 mph 32.0 mph 92 % 0.01 in 207 W/m2
07:16 52.9 °F 50.6 °F 29.17 in WNW 18.0 mph 31.0 mph 92 % 0.01 in 230 W/m2
07:22 52.7 °F 50.4 °F 29.17 in WNW 17.0 mph 29.0 mph 92 % 0.02 in 241 W/m2
07:27 52.9 °F 50.6 °F 29.17 in WNW 19.0 mph 34.0 mph 92 % 0.02 in 274 W/m2
07:32 52.9 °F 50.6 °F 29.18 in WNW 18.0 mph 34.0 mph 92 % 0.02 in 220 W/m2
07:37 52.9 °F 50.6 °F 29.18 in WNW 17.0 mph 29.0 mph 92 % 0.02 in 218 W/m2
07:42 52.9 °F 50.6 °F 29.18 in WNW 17.0 mph 31.0 mph 92 % 0.02 in 199 W/m2
07:47 52.7 °F 50.4 °F 29.18 in WNW 17.0 mph 31.0 mph 92 % 0.02 in 206 W/m2
07:52 52.7 °F 50.4 °F 29.18 in WNW 17.0 mph 30.0 mph 92 % 0.01 in 206 W/m2
07:57 52.7 °F 50.4 °F 29.18 in WNW 18.0 mph 30.0 mph 92 % 0.02 in 197 W/m2
08:02 52.7 °F 50.4 °F 29.18 in WNW 18.0 mph 29.0 mph 92 % 0.02 in 190 W/m2
08:07 52.5 °F 50.3 °F 29.19 in WNW 18.0 mph 36.0 mph 92 % 0.02 in 190 W/m2
08:12 52.5 °F 50.3 °F 29.19 in WNW 19.0 mph 37.0 mph 92 % 0.02 in 186 W/m2
08:17 52.3 °F 50.1 °F 29.19 in WNW 20.0 mph 37.0 mph 92 % 0.02 in 186 W/m2
08:22 52.3 °F 50.1 °F 29.19 in WNW 20.0 mph 42.0 mph 92 % 0.02 in 192 W/m2
08:27 52.2 °F 49.9 °F 29.19 in WNW 19.0 mph 42.0 mph 92 % 0.02 in 193 W/m2
08:32 52.2 °F 49.9 °F 29.19 in WNW 18.0 mph 33.0 mph 92 % 0.02 in 195 W/m2
08:37 52.2 °F 49.9 °F 29.20 in WNW 19.0 mph 34.0 mph 92 % 0.02 in 206 W/m2
08:42 52.2 °F 49.6 °F 29.20 in WNW 19.0 mph 35.0 mph 91 % 0.02 in 213 W/m2
08:47 52.2 °F 49.9 °F 29.20 in WNW 18.0 mph 35.0 mph 92 % 0.02 in 214 W/m2
08:52 52.2 °F 49.9 °F 29.20 in WNW 20.0 mph 37.0 mph 92 % 0.03 in 218 W/m2
08:57 52.2 °F 49.9 °F 29.20 in WNW 21.0 mph 37.0 mph 92 % 0.02 in 221 W/m2
09:03 52.2 °F 49.9 °F 29.20 in WNW 20.0 mph 36.0 mph 92 % 0.03 in 200 W/m2
09:08 52.2 °F 49.9 °F 29.21 in WNW 22.0 mph 36.0 mph 92 % 0.03 in 220 W/m2
09:13 52.2 °F 49.6 °F 29.21 in WNW 22.0 mph 35.0 mph 91 % 0.03 in 225 W/m2
09:18 52.2 °F 49.6 °F 29.21 in WNW 22.0 mph 36.0 mph 91 % 0.02 in 229 W/m2
09:23 52.0 °F 49.4 °F 29.22 in WNW 22.0 mph 40.0 mph 91 % 0.03 in 227 W/m2
09:28 52.0 °F 49.1 °F 29.22 in WNW 24.0 mph 43.0 mph 90 % 0.03 in 214 W/m2
09:33 52.0 °F 49.1 °F 29.23 in WNW 23.0 mph 43.0 mph 90 % 0.03 in 183 W/m2
09:38 52.0 °F 49.1 °F 29.23 in WNW 23.0 mph 41.0 mph 90 % 0.02 in 195 W/m2
09:43 52.0 °F 48.8 °F 29.23 in WNW 24.0 mph 41.0 mph 89 % 0.02 in 195 W/m2
09:48 52.0 °F 48.8 °F 29.23 in WNW 23.0 mph 38.0 mph 89 % 0.02 in 192 W/m2
09:53 52.0 °F 48.8 °F 29.23 in WNW 21.0 mph 37.0 mph 89 % 0.02 in 199 W/m2
09:58 52.2 °F 49.0 °F 29.24 in WNW 20.0 mph 37.0 mph 89 % 0.02 in 204 W/m2
10:03 52.2 °F 49.0 °F 29.24 in WNW 21.0 mph 39.0 mph 89 % 0.02 in 216 W/m2
10:08 52.2 °F 49.0 °F 29.25 in WNW 21.0 mph 39.0 mph 89 % 0.02 in 214 W/m2
10:13 52.3 °F 49.2 °F 29.25 in WNW 21.0 mph 35.0 mph 89 % 0.02 in 195 W/m2
10:18 52.3 °F 49.2 °F 29.25 in WNW 21.0 mph 41.0 mph 89 % 0.02 in 206 W/m2
10:45 52.6 °F 49.1 °F 29.26 in WNW 36.0 mph 36.0 mph 88 % 0.01 in 276 W/m2
11:00 53.2 °F 49.4 °F 29.27 in WNW 44.0 mph 44.0 mph 87 % 0.00 in 263 W/m2
11:15 53.3 °F 49.2 °F 29.27 in WNW 38.0 mph 38.0 mph 86 % 0.00 in 248 W/m2
11:30 53.5 °F 49.1 °F 29.27 in WNW 39.0 mph 39.0 mph 85 % 0.00 in 260 W/m2
11:45 53.7 °F 49.0 °F 29.28 in WNW 38.0 mph 38.0 mph 84 % 0.00 in 222 W/m2
12:00 53.7 °F 48.7 °F 29.29 in WNW 36.0 mph 36.0 mph 83 % 0.00 in 183 W/m2
12:15 53.7 °F 48.0 °F 29.30 in WNW 41.0 mph 41.0 mph 81 % 0.00 in 167 W/m2
12:32 54.1 °F 47.8 °F 29.30 in WNW 23.0 mph 23.0 mph 79 % 0.00 in 160 W/m2
12:37 54.3 °F 47.6 °F 29.30 in WNW 22.0 mph 38.0 mph 78 % 0.00 in 151 W/m2
12:42 54.3 °F 47.6 °F 29.30 in WNW 22.0 mph 38.0 mph 78 % 0.00 in 142 W/m2
12:47 54.3 °F 47.6 °F 29.31 in WNW 21.0 mph 36.0 mph 78 % 0.00 in 137 W/m2
12:52 54.5 °F 47.8 °F 29.30 in WNW 23.0 mph 36.0 mph 78 % 0.00 in 137 W/m2
12:54 54.5 °F 47.8 °F 29.31 in WNW 23.0 mph 38.0 mph 78 % 0.00 in 132 W/m2
12:59 54.5 °F 47.4 °F 29.31 in WNW 23.0 mph 38.0 mph 77 % 0.00 in 134 W/m2
13:01 54.5 °F 47.1 °F 29.31 in WNW 22.0 mph 38.0 mph 76 % 0.00 in 132 W/m2
13:06 54.5 °F 47.4 °F 29.31 in WNW 21.0 mph 37.0 mph 77 % 0.00 in 128 W/m2
13:11 54.5 °F 47.1 °F 29.32 in WNW 20.0 mph 36.0 mph 76 % 0.00 in 125 W/m2
13:16 54.7 °F 47.3 °F 29.32 in WNW 22.0 mph 39.0 mph 76 % 0.00 in 120 W/m2
13:21 54.7 °F 47.6 °F 29.32 in WNW 22.0 mph 39.0 mph 77 % 0.00 in 121 W/m2
13:26 54.5 °F 47.1 °F 29.32 in West 21.0 mph 34.0 mph 76 % 0.00 in 134 W/m2
13:31 54.5 °F 47.1 °F 29.32 in WNW 19.0 mph 35.0 mph 76 % 0.00 in 148 W/m2
13:36 54.5 °F 47.4 °F 29.33 in WNW 21.0 mph 38.0 mph 77 % 0.00 in 144 W/m2
13:41 54.5 °F 47.4 °F 29.33 in WNW 20.0 mph 38.0 mph 77 % 0.00 in 109 W/m2
13:46 54.5 °F 47.8 °F 29.33 in WNW 19.0 mph 37.0 mph 78 % 0.00 in 104 W/m2
13:51 54.5 °F 47.8 °F 29.33 in West 19.0 mph 37.0 mph 78 % 0.00 in 109 W/m2
13:56 54.5 °F 47.8 °F 29.33 in West 19.0 mph 32.0 mph 78 % 0.00 in 79 W/m2
14:01 54.3 °F 47.9 °F 29.33 in West 19.0 mph 33.0 mph 79 % 0.00 in 100 W/m2
14:06 54.5 °F 48.1 °F 29.34 in WNW 18.0 mph 35.0 mph 79 % 0.00 in 102 W/m2
14:11 54.7 °F 48.3 °F 29.33 in West 18.0 mph 35.0 mph 79 % 0.00 in 113 W/m2
14:16 54.7 °F 48.3 °F 29.34 in West 18.0 mph 30.0 mph 79 % 0.00 in 102 W/m2
14:21 54.5 °F 48.1 °F 29.34 in West 17.0 mph 31.0 mph 79 % 0.00 in 74 W/m2
14:27 54.3 °F 47.9 °F 29.34 in West 19.0 mph 33.0 mph 79 % 0.00 in 95 W/m2
14:32 54.0 °F 48.3 °F 29.34 in West 20.0 mph 34.0 mph 81 % 0.00 in 65 W/m2
14:37 53.8 °F 48.4 °F 29.34 in West 18.0 mph 34.0 mph 82 % 0.00 in 90 W/m2
14:42 53.4 °F 48.1 °F 29.34 in West 17.0 mph 30.0 mph 82 % 0.00 in 93 W/m2
14:47 53.4 °F 48.1 °F 29.34 in West 17.0 mph 33.0 mph 82 % 0.00 in 84 W/m2
14:52 53.6 °F 47.9 °F 29.35 in West 17.0 mph 33.0 mph 81 % 0.00 in 77 W/m2
14:57 53.8 °F 47.8 °F 29.35 in West 19.0 mph 31.0 mph 80 % 0.00 in 70 W/m2
15:02 53.8 °F 47.8 °F 29.35 in West 19.0 mph 31.0 mph 80 % 0.00 in 63 W/m2
15:07 54.0 °F 47.9 °F 29.35 in West 17.0 mph 33.0 mph 80 % 0.00 in 35 W/m2
15:12 53.8 °F 48.1 °F 29.36 in West 17.0 mph 34.0 mph 81 % 0.00 in 25 W/m2
15:17 53.6 °F 47.9 °F 29.35 in West 17.0 mph 34.0 mph 81 % 0.00 in 23 W/m2
15:22 53.4 °F 48.1 °F 29.35 in West 17.0 mph 29.0 mph 82 % 0.00 in 23 W/m2
15:27 53.4 °F 47.7 °F 29.36 in West 17.0 mph 32.0 mph 81 % 0.00 in 21 W/m2
15:32 53.4 °F 47.7 °F 29.36 in West 18.0 mph 35.0 mph 81 % 0.00 in 30 W/m2
15:37 53.6 °F 47.9 °F 29.36 in West 16.0 mph 35.0 mph 81 % 0.00 in 30 W/m2
15:42 53.6 °F 47.9 °F 29.36 in West 17.0 mph 31.0 mph 81 % 0.00 in 25 W/m2
15:47 53.6 °F 47.6 °F 29.36 in West 19.0 mph 31.0 mph 80 % 0.00 in 23 W/m2
15:52 53.4 °F 47.7 °F 29.37 in West 18.0 mph 31.0 mph 81 % 0.00 in 18 W/m2
15:57 53.4 °F 47.7 °F 29.37 in West 17.0 mph 30.0 mph 81 % 0.00 in 12 W/m2
16:02 53.2 °F 47.9 °F 29.37 in West 16.0 mph 27.0 mph 82 % 0.00 in 7 W/m2
16:07 53.2 °F 48.2 °F 29.37 in West 16.0 mph 28.0 mph 83 % 0.00 in 0 W/m2
16:12 53.1 °F 48.4 °F 29.37 in West 17.0 mph 28.0 mph 84 % 0.00 in 7 W/m2
16:14 53.1 °F 48.4 °F 29.38 in West 17.0 mph 30.0 mph 84 % 0.00 in 7 W/m2
16:18 52.9 °F 48.2 °F 29.38 in West 18.0 mph 30.0 mph 84 % 0.00 in 0 W/m2
16:24 52.9 °F 47.9 °F 29.38 in West 19.0 mph 34.0 mph 83 % 0.00 in 0 W/m2
16:29 52.9 °F 47.5 °F 29.38 in West 18.0 mph 34.0 mph 82 % 0.00 in 0 W/m2
16:34 52.9 °F 47.5 °F 29.38 in WNW 17.0 mph 31.0 mph 82 % 0.00 in 0 W/m2
16:39 53.1 °F 47.4 °F 29.38 in WNW 17.0 mph 29.0 mph 81 % 0.00 in 0 W/m2
16:44 53.1 °F 47.4 °F 29.38 in West 18.0 mph 29.0 mph 81 % 0.00 in 0 W/m2
16:49 53.1 °F 47.4 °F 29.38 in West 18.0 mph 29.0 mph 81 % 0.00 in 0 W/m2
16:54 53.2 °F 47.6 °F 29.39 in West 19.0 mph 37.0 mph 81 % 0.00 in 0 W/m2
16:59 53.2 °F 47.2 °F 29.39 in West 20.0 mph 37.0 mph 80 % 0.00 in 0 W/m2
17:04 53.2 °F 47.2 °F 29.39 in West 19.0 mph 30.0 mph 80 % 0.00 in 0 W/m2
17:09 53.2 °F 46.9 °F 29.39 in West 20.0 mph 32.0 mph 79 % 0.00 in 0 W/m2
17:14 53.2 °F 46.9 °F 29.39 in West 19.0 mph 32.0 mph 79 % 0.00 in 0 W/m2
17:19 53.2 °F 46.9 °F 29.39 in West 19.0 mph 31.0 mph 79 % 0.00 in 0 W/m2
17:24 53.2 °F 46.9 °F 29.40 in West 18.0 mph 31.0 mph 79 % 0.00 in 0 W/m2
17:29 53.2 °F 47.2 °F 29.40 in West 18.0 mph 31.0 mph 80 % 0.00 in 0 W/m2
17:34 53.2 °F 47.2 °F 29.40 in West 18.0 mph 31.0 mph 80 % 0.00 in 0 W/m2
17:39 53.2 °F 47.6 °F 29.40 in West 17.0 mph 32.0 mph 81 % 0.00 in 0 W/m2
17:44 53.1 °F 47.7 °F 29.41 in West 19.0 mph 32.0 mph 82 % 0.00 in 0 W/m2
17:49 52.9 °F 47.9 °F 29.41 in West 19.0 mph 31.0 mph 83 % 0.00 in 0 W/m2
17:54 52.7 °F 47.7 °F 29.41 in West 16.0 mph 30.0 mph 83 % 0.00 in 0 W/m2
17:59 52.5 °F 47.5 °F 29.41 in West 14.0 mph 28.0 mph 83 % 0.00 in 0 W/m2
18:04 52.5 °F 47.5 °F 29.41 in West 16.0 mph 33.0 mph 83 % 0.00 in 0 W/m2
18:09 52.5 °F 47.8 °F 29.41 in West 17.0 mph 33.0 mph 84 % 0.00 in 0 W/m2
18:14 52.3 °F 47.6 °F 29.42 in West 17.0 mph 30.0 mph 84 % 0.00 in 0 W/m2
18:19 52.3 °F 47.6 °F 29.41 in West 17.0 mph 28.0 mph 84 % 0.00 in 0 W/m2
18:25 52.3 °F 47.6 °F 29.41 in West 17.0 mph 28.0 mph 84 % 0.00 in 0 W/m2
18:30 52.2 °F 47.5 °F 29.42 in West 17.0 mph 28.0 mph 84 % 0.00 in 0 W/m2
18:35 52.2 °F 47.8 °F 29.42 in West 17.0 mph 29.0 mph 85 % 0.00 in 0 W/m2
18:40 52.2 °F 47.8 °F 29.42 in West 16.0 mph 31.0 mph 85 % 0.00 in 0 W/m2
18:45 52.2 °F 47.5 °F 29.42 in West 18.0 mph 31.0 mph 84 % 0.00 in 0 W/m2
18:50 52.3 °F 47.6 °F 29.42 in West 17.0 mph 31.0 mph 84 % 0.00 in 0 W/m2
18:55 52.3 °F 48.0 °F 29.42 in West 16.0 mph 26.0 mph 85 % 0.00 in 0 W/m2
19:00 52.0 °F 47.6 °F 29.42 in West 17.0 mph 31.0 mph 85 % 0.00 in 0 W/m2
19:05 52.0 °F 47.6 °F 29.42 in WNW 17.0 mph 31.0 mph 85 % 0.00 in 0 W/m2
19:10 52.0 °F 47.6 °F 29.43 in West 16.0 mph 27.0 mph 85 % 0.00 in 0 W/m2
19:15 52.0 °F 47.6 °F 29.42 in WNW 15.0 mph 28.0 mph 85 % 0.00 in 0 W/m2
19:20 52.0 °F 47.6 °F 29.43 in West 15.0 mph 29.0 mph 85 % 0.00 in 0 W/m2
19:25 52.0 °F 47.6 °F 29.43 in West 15.0 mph 29.0 mph 85 % 0.00 in 0 W/m2
19:30 52.0 °F 47.6 °F 29.43 in West 15.0 mph 29.0 mph 85 % 0.00 in 0 W/m2
19:35 52.0 °F 47.6 °F 29.43 in West 17.0 mph 29.0 mph 85 % 0.00 in 0 W/m2
19:40 52.0 °F 47.6 °F 29.43 in West 17.0 mph 26.0 mph 85 % 0.00 in 0 W/m2
19:45 52.0 °F 47.6 °F 29.43 in West 17.0 mph 30.0 mph 85 % 0.00 in 0 W/m2
19:50 52.0 °F 47.6 °F 29.43 in West 15.0 mph 30.0 mph 85 % 0.00 in 0 W/m2
19:55 52.0 °F 47.9 °F 29.43 in West 15.0 mph 29.0 mph 86 % 0.00 in 0 W/m2
20:00 52.0 °F 47.6 °F 29.44 in West 17.0 mph 29.0 mph 85 % 0.00 in 0 W/m2
20:05 52.0 °F 47.9 °F 29.44 in West 16.0 mph 29.0 mph 86 % 0.00 in 0 W/m2
20:10 52.0 °F 47.6 °F 29.44 in West 17.0 mph 29.0 mph 85 % 0.00 in 0 W/m2
20:15 52.0 °F 47.9 °F 29.44 in West 18.0 mph 31.0 mph 86 % 0.00 in 0 W/m2
20:20 51.8 °F 47.7 °F 29.44 in West 18.0 mph 31.0 mph 86 % 0.00 in 0 W/m2
20:25 51.8 °F 47.7 °F 29.44 in West 19.0 mph 31.0 mph 86 % 0.00 in 0 W/m2
20:30 52.0 °F 47.9 °F 29.44 in West 19.0 mph 31.0 mph 86 % 0.00 in 0 W/m2
20:35 52.0 °F 47.6 °F 29.44 in West 20.0 mph 34.0 mph 85 % 0.00 in 0 W/m2
20:40 52.0 °F 47.6 °F 29.44 in West 19.0 mph 34.0 mph 85 % 0.00 in 0 W/m2
20:45 52.0 °F 47.6 °F 29.45 in West 17.0 mph 30.0 mph 85 % 0.00 in 0 W/m2
20:50 52.0 °F 47.6 °F 29.45 in West 17.0 mph 30.0 mph 85 % 0.00 in 0 W/m2
20:55 52.2 °F 47.8 °F 29.45 in West 17.0 mph 30.0 mph 85 % 0.00 in 0 W/m2
21:00 52.2 °F 47.8 °F 29.45 in West 18.0 mph 30.0 mph 85 % 0.00 in 0 W/m2
21:05 52.2 °F 47.8 °F 29.45 in West 17.0 mph 30.0 mph 85 % 0.00 in 0 W/m2
21:10 52.2 °F 47.8 °F 29.46 in West 17.0 mph 29.0 mph 85 % 0.00 in 0 W/m2
21:15 52.0 °F 47.9 °F 29.46 in West 18.0 mph 29.0 mph 86 % 0.00 in 0 W/m2
21:20 51.8 °F 47.7 °F 29.46 in West 18.0 mph 32.0 mph 86 % 0.00 in 0 W/m2
21:25 51.8 °F 47.7 °F 29.46 in West 18.0 mph 34.0 mph 86 % 0.00 in 0 W/m2
21:31 51.8 °F 47.7 °F 29.46 in West 17.0 mph 34.0 mph 86 % 0.00 in 0 W/m2
21:36 52.0 °F 47.6 °F 29.46 in West 17.0 mph 30.0 mph 85 % 0.00 in 0 W/m2
21:41 52.0 °F 47.9 °F 29.47 in West 18.0 mph 30.0 mph 86 % 0.00 in 0 W/m2
21:46 51.8 °F 47.7 °F 29.47 in WNW 18.0 mph 29.0 mph 86 % 0.00 in 0 W/m2
21:51 52.0 °F 47.9 °F 29.47 in WNW 17.0 mph 28.0 mph 86 % 0.00 in 0 W/m2
21:56 52.0 °F 48.2 °F 29.47 in West 18.0 mph 34.0 mph 87 % 0.00 in 0 W/m2
22:01 51.8 °F 48.1 °F 29.48 in West 19.0 mph 34.0 mph 87 % 0.00 in 0 W/m2
22:06 51.8 °F 47.7 °F 29.48 in West 18.0 mph 30.0 mph 86 % 0.00 in 0 W/m2
22:11 51.6 °F 47.9 °F 29.48 in West 17.0 mph 27.0 mph 87 % 0.00 in 0 W/m2
22:16 51.6 °F 47.9 °F 29.48 in West 15.0 mph 28.0 mph 87 % 0.00 in 0 W/m2
22:21 51.8 °F 48.1 °F 29.48 in West 16.0 mph 28.0 mph 87 % 0.00 in 0 W/m2
22:26 51.6 °F 47.9 °F 29.49 in West 17.0 mph 29.0 mph 87 % 0.00 in 0 W/m2
22:31 51.6 °F 47.9 °F 29.49 in West 15.0 mph 29.0 mph 87 % 0.00 in 0 W/m2
22:36 51.6 °F 47.6 °F 29.49 in WNW 16.0 mph 27.0 mph 86 % 0.00 in 0 W/m2
22:41 51.8 °F 47.4 °F 29.49 in WNW 18.0 mph 30.0 mph 85 % 0.00 in 0 W/m2
22:46 52.0 °F 47.3 °F 29.49 in WNW 19.0 mph 33.0 mph 84 % 0.00 in 0 W/m2
22:51 52.0 °F 47.3 °F 29.49 in West 18.0 mph 36.0 mph 84 % 0.00 in 0 W/m2
22:56 52.2 °F 47.2 °F 29.49 in West 19.0 mph 36.0 mph 83 % 0.00 in 0 W/m2
23:01 52.0 °F 47.0 °F 29.50 in West 22.0 mph 36.0 mph 83 % 0.00 in 0 W/m2
23:06 52.0 °F 47.0 °F 29.50 in West 21.0 mph 34.0 mph 83 % 0.00 in 0 W/m2
23:11 52.0 °F 47.0 °F 29.50 in West 18.0 mph 34.0 mph 83 % 0.00 in 0 W/m2
23:16 52.0 °F 47.0 °F 29.50 in West 19.0 mph 34.0 mph 83 % 0.00 in 0 W/m2
23:21 52.0 °F 47.0 °F 29.51 in WNW 21.0 mph 36.0 mph 83 % 0.00 in 0 W/m2
23:26 52.0 °F 47.0 °F 29.51 in WNW 21.0 mph 36.0 mph 83 % 0.00 in 0 W/m2
23:31 52.0 °F 47.0 °F 29.51 in WNW 18.0 mph 31.0 mph 83 % 0.00 in 0 W/m2
23:36 52.0 °F 46.7 °F 29.51 in WNW 18.0 mph 33.0 mph 82 % 0.00 in 0 W/m2
23:41 52.0 °F 46.7 °F 29.52 in WNW 19.0 mph 34.0 mph 82 % 0.00 in 0 W/m2
23:46 52.0 °F 46.7 °F 29.52 in WNW 18.0 mph 34.0 mph 82 % 0.00 in 0 W/m2
23:51 52.0 °F 46.7 °F 29.52 in WNW 16.0 mph 26.0 mph 82 % 0.00 in 0 W/m2
23:56 52.0 °F 46.3 °F 29.53 in WNW 17.0 mph 31.0 mph 81 % 0.00 in 0 W/m2
Delerius-Weather
Compliments of Weather Underground - 2.25 mb

Data updates at regular intervals.